sensor_id;sensor_type;location;lat;lon;timestamp;pressure;altitude;pressure_sealevel;temperature
68012;BMP180;54794;48.348;7.878;2023-09-30T00:01:40;99952.00;;;18.30
68012;BMP180;54794;48.348;7.878;2023-09-30T00:04:07;99946.00;;;18.10
68012;BMP180;54794;48.348;7.878;2023-09-30T00:06:34;99942.00;;;18.30
68012;BMP180;54794;48.348;7.878;2023-09-30T00:09:01;99948.00;;;18.20
68012;BMP180;54794;48.348;7.878;2023-09-30T00:11:28;99951.00;;;18.10
68012;BMP180;54794;48.348;7.878;2023-09-30T00:13:55;99926.00;;;18.40
68012;BMP180;54794;48.348;7.878;2023-09-30T00:16:23;99926.00;;;18.50
68012;BMP180;54794;48.348;7.878;2023-09-30T00:18:50;99944.00;;;18.00
68012;BMP180;54794;48.348;7.878;2023-09-30T00:21:18;99927.00;;;18.30
68012;BMP180;54794;48.348;7.878;2023-09-30T00:23:45;99930.00;;;18.10
68012;BMP180;54794;48.348;7.878;2023-09-30T00:26:12;99915.00;;;17.80
68012;BMP180;54794;48.348;7.878;2023-09-30T00:28:41;99921.00;;;17.60
68012;BMP180;54794;48.348;7.878;2023-09-30T00:31:08;99926.00;;;17.90
68012;BMP180;54794;48.348;7.878;2023-09-30T00:33:38;99934.00;;;17.70
68012;BMP180;54794;48.348;7.878;2023-09-30T00:36:10;99934.00;;;17.90
68012;BMP180;54794;48.348;7.878;2023-09-30T00:38:40;99944.00;;;18.20
68012;BMP180;54794;48.348;7.878;2023-09-30T00:41:07;99948.00;;;18.00
68012;BMP180;54794;48.348;7.878;2023-09-30T00:43:34;99943.00;;;17.90
68012;BMP180;54794;48.348;7.878;2023-09-30T00:46:27;99939.00;;;17.70
68012;BMP180;54794;48.348;7.878;2023-09-30T00:48:55;99947.00;;;17.80
68012;BMP180;54794;48.348;7.878;2023-09-30T00:51:23;99938.00;;;17.70
68012;BMP180;54794;48.348;7.878;2023-09-30T00:53:52;99934.00;;;18.00
68012;BMP180;54794;48.348;7.878;2023-09-30T00:56:26;99934.00;;;18.00
68012;BMP180;54794;48.348;7.878;2023-09-30T00:58:53;99956.00;;;17.90
68012;BMP180;54794;48.348;7.878;2023-09-30T01:01:21;99950.00;;;17.90
68012;BMP180;54794;48.348;7.878;2023-09-30T01:03:49;99949.00;;;18.10
68012;BMP180;54794;48.348;7.878;2023-09-30T01:06:16;99949.00;;;17.90
68012;BMP180;54794;48.348;7.878;2023-09-30T01:08:44;99943.00;;;17.70
68012;BMP180;54794;48.348;7.878;2023-09-30T01:11:12;99938.00;;;17.70
68012;BMP180;54794;48.348;7.878;2023-09-30T01:13:40;99931.00;;;17.60
68012;BMP180;54794;48.348;7.878;2023-09-30T01:16:09;99930.00;;;17.90
68012;BMP180;54794;48.348;7.878;2023-09-30T01:18:41;99934.00;;;18.10
68012;BMP180;54794;48.348;7.878;2023-09-30T01:21:11;99935.00;;;18.20
68012;BMP180;54794;48.348;7.878;2023-09-30T01:23:39;99929.00;;;17.90
68012;BMP180;54794;48.348;7.878;2023-09-30T01:26:10;99935.00;;;17.70
68012;BMP180;54794;48.348;7.878;2023-09-30T01:28:40;99937.00;;;17.70
68012;BMP180;54794;48.348;7.878;2023-09-30T01:31:07;99941.00;;;17.50
68012;BMP180;54794;48.348;7.878;2023-09-30T01:33:35;99935.00;;;17.50
68012;BMP180;54794;48.348;7.878;2023-09-30T01:36:02;99928.00;;;17.50
68012;BMP180;54794;48.348;7.878;2023-09-30T01:38:30;99923.00;;;17.80
68012;BMP180;54794;48.348;7.878;2023-09-30T01:40:57;99919.00;;;17.70
68012;BMP180;54794;48.348;7.878;2023-09-30T01:43:27;99916.00;;;17.60
68012;BMP180;54794;48.348;7.878;2023-09-30T01:45:55;99927.00;;;17.60
68012;BMP180;54794;48.348;7.878;2023-09-30T01:48:22;99929.00;;;17.70
68012;BMP180;54794;48.348;7.878;2023-09-30T01:50:49;99933.00;;;17.30
68012;BMP180;54794;48.348;7.878;2023-09-30T01:53:16;99938.00;;;17.20
68012;BMP180;54794;48.348;7.878;2023-09-30T01:55:43;99943.00;;;17.20
68012;BMP180;54794;48.348;7.878;2023-09-30T01:58:11;99948.00;;;17.00
68012;BMP180;54794;48.348;7.878;2023-09-30T02:00:38;99955.00;;;17.30
68012;BMP180;54794;48.348;7.878;2023-09-30T02:03:05;99958.00;;;17.50
68012;BMP180;54794;48.348;7.878;2023-09-30T02:05:34;99941.00;;;17.70
68012;BMP180;54794;48.348;7.878;2023-09-30T02:08:04;99941.00;;;17.50
68012;BMP180;54794;48.348;7.878;2023-09-30T02:10:33;99943.00;;;17.20
68012;BMP180;54794;48.348;7.878;2023-09-30T02:13:01;99949.00;;;17.30
68012;BMP180;54794;48.348;7.878;2023-09-30T02:15:28;99944.00;;;17.10
68012;BMP180;54794;48.348;7.878;2023-09-30T02:17:56;99948.00;;;17.40
68012;BMP180;54794;48.348;7.878;2023-09-30T02:20:23;99949.00;;;17.30
68012;BMP180;54794;48.348;7.878;2023-09-30T02:22:52;99949.00;;;17.30
68012;BMP180;54794;48.348;7.878;2023-09-30T02:25:21;99939.00;;;17.30
68012;BMP180;54794;48.348;7.878;2023-09-30T02:27:50;99944.00;;;17.00
68012;BMP180;54794;48.348;7.878;2023-09-30T02:30:17;99961.00;;;17.00
68012;BMP180;54794;48.348;7.878;2023-09-30T02:32:44;99957.00;;;17.20
68012;BMP180;54794;48.348;7.878;2023-09-30T02:35:13;99957.00;;;17.00
68012;BMP180;54794;48.348;7.878;2023-09-30T02:37:42;99963.00;;;17.50
68012;BMP180;54794;48.348;7.878;2023-09-30T02:40:10;99955.00;;;17.50
68012;BMP180;54794;48.348;7.878;2023-09-30T02:42:39;99961.00;;;17.70
68012;BMP180;54794;48.348;7.878;2023-09-30T02:45:08;99950.00;;;17.50
68012;BMP180;54794;48.348;7.878;2023-09-30T02:47:37;99950.00;;;17.40
68012;BMP180;54794;48.348;7.878;2023-09-30T02:50:07;99956.00;;;17.30
68012;BMP180;54794;48.348;7.878;2023-09-30T02:52:38;99954.00;;;17.10
68012;BMP180;54794;48.348;7.878;2023-09-30T02:55:12;99950.00;;;17.30
68012;BMP180;54794;48.348;7.878;2023-09-30T02:57:39;99954.00;;;17.40
68012;BMP180;54794;48.348;7.878;2023-09-30T03:00:09;99961.00;;;17.50
68012;BMP180;54794;48.348;7.878;2023-09-30T03:02:53;99969.00;;;17.30
68012;BMP180;54794;48.348;7.878;2023-09-30T03:05:22;99975.00;;;17.50
68012;BMP180;54794;48.348;7.878;2023-09-30T03:07:50;99979.00;;;17.40
68012;BMP180;54794;48.348;7.878;2023-09-30T03:10:18;99972.00;;;17.30
68012;BMP180;54794;48.348;7.878;2023-09-30T03:12:51;99972.00;;;17.50
68012;BMP180;54794;48.348;7.878;2023-09-30T03:15:19;99971.00;;;17.60
68012;BMP180;54794;48.348;7.878;2023-09-30T03:17:46;99965.00;;;17.20
68012;BMP180;54794;48.348;7.878;2023-09-30T03:20:19;99966.00;;;17.40
68012;BMP180;54794;48.348;7.878;2023-09-30T03:22:48;99963.00;;;17.40
68012;BMP180;54794;48.348;7.878;2023-09-30T03:25:19;99952.00;;;17.30
68012;BMP180;54794;48.348;7.878;2023-09-30T03:27:49;99954.00;;;17.20
68012;BMP180;54794;48.348;7.878;2023-09-30T03:30:18;99940.00;;;17.10
68012;BMP180;54794;48.348;7.878;2023-09-30T03:32:47;99942.00;;;17.30
68012;BMP180;54794;48.348;7.878;2023-09-30T03:35:14;99929.00;;;17.70
68012;BMP180;54794;48.348;7.878;2023-09-30T03:37:46;99929.00;;;17.50
68012;BMP180;54794;48.348;7.878;2023-09-30T03:40:14;99927.00;;;17.60
68012;BMP180;54794;48.348;7.878;2023-09-30T03:42:47;99909.00;;;17.50
68012;BMP180;54794;48.348;7.878;2023-09-30T03:45:17;99896.00;;;17.20
68012;BMP180;54794;48.348;7.878;2023-09-30T03:47:46;99899.00;;;17.30
68012;BMP180;54794;48.348;7.878;2023-09-30T03:50:15;99910.00;;;17.10
68012;BMP180;54794;48.348;7.878;2023-09-30T03:52:43;99915.00;;;17.20
68012;BMP180;54794;48.348;7.878;2023-09-30T03:55:16;99927.00;;;17.40
68012;BMP180;54794;48.348;7.878;2023-09-30T03:57:49;99935.00;;;17.40
68012;BMP180;54794;48.348;7.878;2023-09-30T04:00:18;99939.00;;;17.20
68012;BMP180;54794;48.348;7.878;2023-09-30T04:02:48;99941.00;;;17.30
68012;BMP180;54794;48.348;7.878;2023-09-30T04:05:18;99934.00;;;17.40
68012;BMP180;54794;48.348;7.878;2023-09-30T04:07:47;99932.00;;;17.20
68012;BMP180;54794;48.348;7.878;2023-09-30T04:10:14;99930.00;;;16.80
68012;BMP180;54794;48.348;7.878;2023-09-30T04:12:41;99937.00;;;16.80
68012;BMP180;54794;48.348;7.878;2023-09-30T04:15:09;99949.00;;;17.30
68012;BMP180;54794;48.348;7.878;2023-09-30T04:17:39;99953.00;;;17.30
68012;BMP180;54794;48.348;7.878;2023-09-30T04:20:08;99945.00;;;17.20
68012;BMP180;54794;48.348;7.878;2023-09-30T04:22:38;99959.00;;;17.00
68012;BMP180;54794;48.348;7.878;2023-09-30T04:25:06;99960.00;;;16.80
68012;BMP180;54794;48.348;7.878;2023-09-30T04:27:37;99964.00;;;16.90
68012;BMP180;54794;48.348;7.878;2023-09-30T04:30:06;99971.00;;;17.00
68012;BMP180;54794;48.348;7.878;2023-09-30T04:32:37;99959.00;;;17.30
68012;BMP180;54794;48.348;7.878;2023-09-30T04:35:06;99952.00;;;17.50
68012;BMP180;54794;48.348;7.878;2023-09-30T04:38:10;99948.00;;;17.70
68012;BMP180;54794;48.348;7.878;2023-09-30T04:41:03;99967.00;;;17.30
68012;BMP180;54794;48.348;7.878;2023-09-30T04:44:32;99975.00;;;17.20
68012;BMP180;54794;48.348;7.878;2023-09-30T04:47:39;99978.00;;;17.20
68012;BMP180;54794;48.348;7.878;2023-09-30T04:51:07;99994.00;;;17.30
68012;BMP180;54794;48.348;7.878;2023-09-30T04:54:04;99976.00;;;17.50
68012;BMP180;54794;48.348;7.878;2023-09-30T04:56:59;99996.00;;;17.70
68012;BMP180;54794;48.348;7.878;2023-09-30T05:00:01;99977.00;;;17.80
68012;BMP180;54794;48.348;7.878;2023-09-30T05:03:25;99971.00;;;17.80
68012;BMP180;54794;48.348;7.878;2023-09-30T05:06:30;99976.00;;;17.70
68012;BMP180;54794;48.348;7.878;2023-09-30T05:09:47;99971.00;;;17.90
68012;BMP180;54794;48.348;7.878;2023-09-30T05:13:01;99983.00;;;17.60
68012;BMP180;54794;48.348;7.878;2023-09-30T05:15:57;99982.00;;;17.50
68012;BMP180;54794;48.348;7.878;2023-09-30T05:19:03;99977.00;;;17.40
68012;BMP180;54794;48.348;7.878;2023-09-30T05:22:14;99973.00;;;17.00
68012;BMP180;54794;48.348;7.878;2023-09-30T05:25:30;99969.00;;;17.20
68012;BMP180;54794;48.348;7.878;2023-09-30T05:32:06;99968.00;;;17.60
68012;BMP180;54794;48.348;7.878;2023-09-30T05:35:46;99980.00;;;17.30
68012;BMP180;54794;48.348;7.878;2023-09-30T05:39:04;99973.00;;;16.90
68012;BMP180;54794;48.348;7.878;2023-09-30T05:45:46;99976.00;;;16.90
68012;BMP180;54794;48.348;7.878;2023-09-30T05:49:07;99986.00;;;17.10
68012;BMP180;54794;48.348;7.878;2023-09-30T05:52:11;99990.00;;;17.10
68012;BMP180;54794;48.348;7.878;2023-09-30T05:58:17;99993.00;;;17.50
68012;BMP180;54794;48.348;7.878;2023-09-30T06:04:24;99998.00;;;17.50
68012;BMP180;54794;48.348;7.878;2023-09-30T06:07:29;100013.00;;;17.30
68012;BMP180;54794;48.348;7.878;2023-09-30T06:13:44;100009.00;;;16.90
68012;BMP180;54794;48.348;7.878;2023-09-30T06:16:33;100013.00;;;17.40
68012;BMP180;54794;48.348;7.878;2023-09-30T06:23:25;100013.00;;;17.70
68012;BMP180;54794;48.348;7.878;2023-09-30T06:26:34;100003.00;;;17.70
68012;BMP180;54794;48.348;7.878;2023-09-30T06:29:30;100005.00;;;17.50
68012;BMP180;54794;48.348;7.878;2023-09-30T06:32:25;100006.00;;;17.30
68012;BMP180;54794;48.348;7.878;2023-09-30T06:39:08;100026.00;;;17.40
68012;BMP180;54794;48.348;7.878;2023-09-30T06:42:17;100024.00;;;17.50
68012;BMP180;54794;48.348;7.878;2023-09-30T06:45:31;100041.00;;;17.70
68012;BMP180;54794;48.348;7.878;2023-09-30T06:48:37;100035.00;;;17.70
68012;BMP180;54794;48.348;7.878;2023-09-30T06:51:38;100028.00;;;17.80
68012;BMP180;54794;48.348;7.878;2023-09-30T06:54:30;100039.00;;;17.80
68012;BMP180;54794;48.348;7.878;2023-09-30T06:57:39;100036.00;;;17.90
68012;BMP180;54794;48.348;7.878;2023-09-30T07:00:29;100034.00;;;18.00
68012;BMP180;54794;48.348;7.878;2023-09-30T07:03:27;100032.00;;;17.80
68012;BMP180;54794;48.348;7.878;2023-09-30T07:06:26;100044.00;;;17.80
68012;BMP180;54794;48.348;7.878;2023-09-30T07:09:37;100045.00;;;18.00
68012;BMP180;54794;48.348;7.878;2023-09-30T07:19:04;100046.00;;;18.40
68012;BMP180;54794;48.348;7.878;2023-09-30T07:22:51;100053.00;;;18.50
68012;BMP180;54794;48.348;7.878;2023-09-30T07:26:26;100063.00;;;18.50
68012;BMP180;54794;48.348;7.878;2023-09-30T07:32:48;100085.00;;;18.80
68012;BMP180;54794;48.348;7.878;2023-09-30T07:36:08;100084.00;;;18.80
68012;BMP180;54794;48.348;7.878;2023-09-30T07:39:01;100081.00;;;18.90
68012;BMP180;54794;48.348;7.878;2023-09-30T07:41:51;100057.00;;;18.60
68012;BMP180;54794;48.348;7.878;2023-09-30T07:44:44;100062.00;;;18.70
68012;BMP180;54794;48.348;7.878;2023-09-30T07:47:47;100070.00;;;18.80
68012;BMP180;54794;48.348;7.878;2023-09-30T07:50:32;100073.00;;;18.90
68012;BMP180;54794;48.348;7.878;2023-09-30T07:53:41;100078.00;;;18.90
68012;BMP180;54794;48.348;7.878;2023-09-30T07:57:02;100075.00;;;18.90
68012;BMP180;54794;48.348;7.878;2023-09-30T08:00:21;100087.00;;;18.90
68012;BMP180;54794;48.348;7.878;2023-09-30T08:03:53;100063.00;;;19.20
68012;BMP180;54794;48.348;7.878;2023-09-30T08:06:41;100048.00;;;19.20
68012;BMP180;54794;48.348;7.878;2023-09-30T08:10:07;100061.00;;;19.40
68012;BMP180;54794;48.348;7.878;2023-09-30T08:13:02;100043.00;;;19.10
68012;BMP180;54794;48.348;7.878;2023-09-30T08:16:21;100057.00;;;19.40
68012;BMP180;54794;48.348;7.878;2023-09-30T08:19:23;100055.00;;;19.80
68012;BMP180;54794;48.348;7.878;2023-09-30T08:22:34;100050.00;;;19.80
68012;BMP180;54794;48.348;7.878;2023-09-30T08:25:57;100044.00;;;19.80
68012;BMP180;54794;48.348;7.878;2023-09-30T08:28:55;100063.00;;;20.10
68012;BMP180;54794;48.348;7.878;2023-09-30T08:31:50;100082.00;;;19.80
68012;BMP180;54794;48.348;7.878;2023-09-30T08:34:18;100087.00;;;19.80
68012;BMP180;54794;48.348;7.878;2023-09-30T08:36:47;100094.00;;;20.00
68012;BMP180;54794;48.348;7.878;2023-09-30T08:39:14;100094.00;;;20.20
68012;BMP180;54794;48.348;7.878;2023-09-30T08:41:42;100097.00;;;20.20
68012;BMP180;54794;48.348;7.878;2023-09-30T08:44:11;100079.00;;;20.40
68012;BMP180;54794;48.348;7.878;2023-09-30T08:46:40;100086.00;;;20.10
68012;BMP180;54794;48.348;7.878;2023-09-30T08:49:12;100088.00;;;20.00
68012;BMP180;54794;48.348;7.878;2023-09-30T08:51:42;100070.00;;;20.10
68012;BMP180;54794;48.348;7.878;2023-09-30T08:54:10;100069.00;;;20.40
68012;BMP180;54794;48.348;7.878;2023-09-30T08:56:40;100070.00;;;20.70
68012;BMP180;54794;48.348;7.878;2023-09-30T08:59:12;100066.00;;;20.80
68012;BMP180;54794;48.348;7.878;2023-09-30T09:01:40;100053.00;;;21.00
68012;BMP180;54794;48.348;7.878;2023-09-30T09:04:07;100060.00;;;20.70
68012;BMP180;54794;48.348;7.878;2023-09-30T09:06:34;100061.00;;;20.30
68012;BMP180;54794;48.348;7.878;2023-09-30T09:09:18;100057.00;;;20.50
68012;BMP180;54794;48.348;7.878;2023-09-30T09:11:46;100054.00;;;20.70
68012;BMP180;54794;48.348;7.878;2023-09-30T09:14:14;100063.00;;;21.30
68012;BMP180;54794;48.348;7.878;2023-09-30T09:16:55;100067.00;;;20.70
68012;BMP180;54794;48.348;7.878;2023-09-30T09:19:23;100055.00;;;20.80
68012;BMP180;54794;48.348;7.878;2023-09-30T09:22:01;100044.00;;;20.50
68012;BMP180;54794;48.348;7.878;2023-09-30T09:24:38;100050.00;;;21.10
68012;BMP180;54794;48.348;7.878;2023-09-30T09:27:13;100044.00;;;21.20
68012;BMP180;54794;48.348;7.878;2023-09-30T09:29:44;100034.00;;;21.30
68012;BMP180;54794;48.348;7.878;2023-09-30T09:32:15;100030.00;;;21.30
68012;BMP180;54794;48.348;7.878;2023-09-30T09:34:44;100013.00;;;21.20
68012;BMP180;54794;48.348;7.878;2023-09-30T09:37:20;100017.00;;;21.50
68012;BMP180;54794;48.348;7.878;2023-09-30T09:42:30;100008.00;;;21.30
68012;BMP180;54794;48.348;7.878;2023-09-30T09:45:04;100014.00;;;21.30
68012;BMP180;54794;48.348;7.878;2023-09-30T09:47:33;100007.00;;;21.50
68012;BMP180;54794;48.348;7.878;2023-09-30T09:50:04;100008.00;;;21.20
68012;BMP180;54794;48.348;7.878;2023-09-30T09:52:34;100014.00;;;21.40
68012;BMP180;54794;48.348;7.878;2023-09-30T09:55:02;100013.00;;;21.60
68012;BMP180;54794;48.348;7.878;2023-09-30T09:57:31;100015.00;;;21.30
68012;BMP180;54794;48.348;7.878;2023-09-30T10:00:00;100015.00;;;21.30
68012;BMP180;54794;48.348;7.878;2023-09-30T10:02:32;100022.00;;;21.60
68012;BMP180;54794;48.348;7.878;2023-09-30T10:05:03;100023.00;;;21.20
68012;BMP180;54794;48.348;7.878;2023-09-30T10:07:38;100019.00;;;21.20
68012;BMP180;54794;48.348;7.878;2023-09-30T10:10:14;100021.00;;;21.40
68012;BMP180;54794;48.348;7.878;2023-09-30T10:12:44;100019.00;;;21.50
68012;BMP180;54794;48.348;7.878;2023-09-30T10:18:09;100010.00;;;21.70
68012;BMP180;54794;48.348;7.878;2023-09-30T10:20:44;100012.00;;;21.00
68012;BMP180;54794;48.348;7.878;2023-09-30T10:23:25;100012.00;;;21.30
68012;BMP180;54794;48.348;7.878;2023-09-30T10:26:14;100009.00;;;21.10
68012;BMP180;54794;48.348;7.878;2023-09-30T10:28:44;100012.00;;;21.40
68012;BMP180;54794;48.348;7.878;2023-09-30T10:31:21;100012.00;;;21.60
68012;BMP180;54794;48.348;7.878;2023-09-30T10:36:38;100007.00;;;21.40
68012;BMP180;54794;48.348;7.878;2023-09-30T10:39:12;100010.00;;;21.60
68012;BMP180;54794;48.348;7.878;2023-09-30T10:41:48;100015.00;;;21.90
68012;BMP180;54794;48.348;7.878;2023-09-30T10:44:32;100003.00;;;21.90
68012;BMP180;54794;48.348;7.878;2023-09-30T10:49:48;100008.00;;;21.90
68012;BMP180;54794;48.348;7.878;2023-09-30T10:52:51;100015.00;;;22.00
68012;BMP180;54794;48.348;7.878;2023-09-30T10:56:14;100008.00;;;22.00
68012;BMP180;54794;48.348;7.878;2023-09-30T11:06:55;100001.00;;;21.60
68012;BMP180;54794;48.348;7.878;2023-09-30T11:17:23;99984.00;;;22.40
68012;BMP180;54794;48.348;7.878;2023-09-30T11:20:29;99982.00;;;22.30
68012;BMP180;54794;48.348;7.878;2023-09-30T11:26:56;99983.00;;;22.50
68012;BMP180;54794;48.348;7.878;2023-09-30T11:29:58;99978.00;;;22.70
68012;BMP180;54794;48.348;7.878;2023-09-30T11:32:57;99983.00;;;22.80
68012;BMP180;54794;48.348;7.878;2023-09-30T11:36:08;99982.00;;;23.00
68012;BMP180;54794;48.348;7.878;2023-09-30T11:42:27;99962.00;;;22.80
68012;BMP180;54794;48.348;7.878;2023-09-30T11:45:46;99967.00;;;22.80
68012;BMP180;54794;48.348;7.878;2023-09-30T11:49:34;99957.00;;;22.80
68012;BMP180;54794;48.348;7.878;2023-09-30T11:53:34;99956.00;;;22.90
68012;BMP180;54794;48.348;7.878;2023-09-30T12:03:59;99953.00;;;23.10
68012;BMP180;54794;48.348;7.878;2023-09-30T12:11:26;99951.00;;;23.30
68012;BMP180;54794;48.348;7.878;2023-09-30T12:14:53;99945.00;;;23.60
68012;BMP180;54794;48.348;7.878;2023-09-30T12:18:26;99953.00;;;23.30
68012;BMP180;54794;48.348;7.878;2023-09-30T12:21:31;99956.00;;;23.20
68012;BMP180;54794;48.348;7.878;2023-09-30T12:24:54;99958.00;;;23.70
68012;BMP180;54794;48.348;7.878;2023-09-30T12:27:42;99959.00;;;23.60
68012;BMP180;54794;48.348;7.878;2023-09-30T12:38:40;99947.00;;;24.80
68012;BMP180;54794;48.348;7.878;2023-09-30T12:46:03;99948.00;;;24.60
68012;BMP180;54794;48.348;7.878;2023-09-30T12:49:35;99943.00;;;24.30
68012;BMP180;54794;48.348;7.878;2023-09-30T12:52:39;99936.00;;;23.60
68012;BMP180;54794;48.348;7.878;2023-09-30T12:55:55;99939.00;;;24.00
68012;BMP180;54794;48.348;7.878;2023-09-30T13:03:00;99941.00;;;24.10
68012;BMP180;54794;48.348;7.878;2023-09-30T13:06:33;99944.00;;;24.30
68012;BMP180;54794;48.348;7.878;2023-09-30T13:09:54;99943.00;;;23.90
68012;BMP180;54794;48.348;7.878;2023-09-30T13:13:11;99947.00;;;24.30
68012;BMP180;54794;48.348;7.878;2023-09-30T13:16:55;99946.00;;;23.80
68012;BMP180;54794;48.348;7.878;2023-09-30T13:19:47;99953.00;;;24.40
68012;BMP180;54794;48.348;7.878;2023-09-30T13:22:55;99948.00;;;24.70
68012;BMP180;54794;48.348;7.878;2023-09-30T13:26:11;99954.00;;;23.70
68012;BMP180;54794;48.348;7.878;2023-09-30T13:29:38;99939.00;;;23.80
68012;BMP180;54794;48.348;7.878;2023-09-30T13:32:42;99941.00;;;24.60
68012;BMP180;54794;48.348;7.878;2023-09-30T13:35:48;99944.00;;;24.50
68012;BMP180;54794;48.348;7.878;2023-09-30T13:38:52;99940.00;;;24.20
68012;BMP180;54794;48.348;7.878;2023-09-30T13:46:19;99935.00;;;23.30
68012;BMP180;54794;48.348;7.878;2023-09-30T13:49:33;99930.00;;;24.20
68012;BMP180;54794;48.348;7.878;2023-09-30T13:52:48;99929.00;;;24.40
68012;BMP180;54794;48.348;7.878;2023-09-30T13:55:58;99924.00;;;23.90
68012;BMP180;54794;48.348;7.878;2023-09-30T13:59:23;99929.00;;;24.80
68012;BMP180;54794;48.348;7.878;2023-09-30T14:02:28;99924.00;;;24.90
68012;BMP180;54794;48.348;7.878;2023-09-30T14:05:47;99919.00;;;24.90
68012;BMP180;54794;48.348;7.878;2023-09-30T14:09:06;99903.00;;;25.30
68012;BMP180;54794;48.348;7.878;2023-09-30T14:16:28;99904.00;;;25.00
68012;BMP180;54794;48.348;7.878;2023-09-30T14:19:44;99907.00;;;25.10
68012;BMP180;54794;48.348;7.878;2023-09-30T14:27:25;99905.00;;;25.10
68012;BMP180;54794;48.348;7.878;2023-09-30T14:41:31;99891.00;;;25.20
68012;BMP180;54794;48.348;7.878;2023-09-30T14:48:20;99884.00;;;25.30
68012;BMP180;54794;48.348;7.878;2023-09-30T15:03:09;99885.00;;;24.70
68012;BMP180;54794;48.348;7.878;2023-09-30T15:06:25;99889.00;;;24.20
68012;BMP180;54794;48.348;7.878;2023-09-30T15:09:45;99883.00;;;24.90
68012;BMP180;54794;48.348;7.878;2023-09-30T15:13:10;99881.00;;;25.00
68012;BMP180;54794;48.348;7.878;2023-09-30T15:16:41;99883.00;;;24.50
68012;BMP180;54794;48.348;7.878;2023-09-30T15:23:55;99891.00;;;24.30
68012;BMP180;54794;48.348;7.878;2023-09-30T15:27:17;99890.00;;;24.60
68012;BMP180;54794;48.348;7.878;2023-09-30T15:30:38;99894.00;;;24.80
68012;BMP180;54794;48.348;7.878;2023-09-30T15:34:02;99900.00;;;24.80
68012;BMP180;54794;48.348;7.878;2023-09-30T15:41:23;99896.00;;;24.40
68012;BMP180;54794;48.348;7.878;2023-09-30T15:49:12;99903.00;;;24.40
68012;BMP180;54794;48.348;7.878;2023-09-30T15:52:33;99905.00;;;24.30
68012;BMP180;54794;48.348;7.878;2023-09-30T15:55:39;99908.00;;;23.90
68012;BMP180;54794;48.348;7.878;2023-09-30T16:03:45;99906.00;;;23.90
68012;BMP180;54794;48.348;7.878;2023-09-30T16:07:49;99915.00;;;23.40
68012;BMP180;54794;48.348;7.878;2023-09-30T16:10:56;99914.00;;;23.50
68012;BMP180;54794;48.348;7.878;2023-09-30T16:14:17;99913.00;;;23.50
68012;BMP180;54794;48.348;7.878;2023-09-30T16:18:21;99925.00;;;23.20
68012;BMP180;54794;48.348;7.878;2023-09-30T16:25:21;99913.00;;;22.40
68012;BMP180;54794;48.348;7.878;2023-09-30T16:32:55;99911.00;;;21.80
68012;BMP180;54794;48.348;7.878;2023-09-30T16:44:04;99920.00;;;21.60
68012;BMP180;54794;48.348;7.878;2023-09-30T16:47:05;99923.00;;;21.30
68012;BMP180;54794;48.348;7.878;2023-09-30T16:50:19;99930.00;;;21.20
68012;BMP180;54794;48.348;7.878;2023-09-30T16:53:11;99924.00;;;21.10
68012;BMP180;54794;48.348;7.878;2023-09-30T17:03:42;99924.00;;;20.60
68012;BMP180;54794;48.348;7.878;2023-09-30T17:06:58;99928.00;;;20.50
68012;BMP180;54794;48.348;7.878;2023-09-30T17:10:10;99919.00;;;20.50
68012;BMP180;54794;48.348;7.878;2023-09-30T17:13:25;99923.00;;;20.50
68012;BMP180;54794;48.348;7.878;2023-09-30T17:16:48;99928.00;;;20.30
68012;BMP180;54794;48.348;7.878;2023-09-30T17:19:59;99920.00;;;20.30
68012;BMP180;54794;48.348;7.878;2023-09-30T17:23:47;99929.00;;;20.30
68012;BMP180;54794;48.348;7.878;2023-09-30T17:26:51;99924.00;;;20.20
68012;BMP180;54794;48.348;7.878;2023-09-30T17:30:03;99925.00;;;19.90
68012;BMP180;54794;48.348;7.878;2023-09-30T17:33:07;99921.00;;;19.70
68012;BMP180;54794;48.348;7.878;2023-09-30T17:40:18;99921.00;;;19.80
68012;BMP180;54794;48.348;7.878;2023-09-30T17:43:16;99922.00;;;19.60
68012;BMP180;54794;48.348;7.878;2023-09-30T17:46:57;99916.00;;;19.40
68012;BMP180;54794;48.348;7.878;2023-09-30T18:00:46;99927.00;;;19.10
68012;BMP180;54794;48.348;7.878;2023-09-30T18:07:32;99920.00;;;18.90
68012;BMP180;54794;48.348;7.878;2023-09-30T18:10:34;99927.00;;;18.90
68012;BMP180;54794;48.348;7.878;2023-09-30T18:14:07;99932.00;;;18.90
68012;BMP180;54794;48.348;7.878;2023-09-30T18:16:57;99942.00;;;19.10
68012;BMP180;54794;48.348;7.878;2023-09-30T18:20:14;99943.00;;;18.70
68012;BMP180;54794;48.348;7.878;2023-09-30T18:23:35;99954.00;;;18.70
68012;BMP180;54794;48.348;7.878;2023-09-30T18:26:47;99952.00;;;18.70
68012;BMP180;54794;48.348;7.878;2023-09-30T18:30:11;99943.00;;;18.50
68012;BMP180;54794;48.348;7.878;2023-09-30T18:33:41;99952.00;;;18.50
68012;BMP180;54794;48.348;7.878;2023-09-30T18:36:49;99960.00;;;18.60
68012;BMP180;54794;48.348;7.878;2023-09-30T18:40:20;99956.00;;;18.10
68012;BMP180;54794;48.348;7.878;2023-09-30T18:43:40;99951.00;;;17.90
68012;BMP180;54794;48.348;7.878;2023-09-30T18:47:00;99957.00;;;18.30
68012;BMP180;54794;48.348;7.878;2023-09-30T18:50:50;99968.00;;;17.80
68012;BMP180;54794;48.348;7.878;2023-09-30T18:53:54;99963.00;;;17.90
68012;BMP180;54794;48.348;7.878;2023-09-30T18:57:25;99968.00;;;18.00
68012;BMP180;54794;48.348;7.878;2023-09-30T19:00:49;99964.00;;;17.90
68012;BMP180;54794;48.348;7.878;2023-09-30T19:04:42;99972.00;;;17.90
68012;BMP180;54794;48.348;7.878;2023-09-30T19:07:58;99967.00;;;18.00
68012;BMP180;54794;48.348;7.878;2023-09-30T19:11:40;99968.00;;;18.00
68012;BMP180;54794;48.348;7.878;2023-09-30T19:18:03;99966.00;;;18.20
68012;BMP180;54794;48.348;7.878;2023-09-30T19:20:58;99964.00;;;17.90
68012;BMP180;54794;48.348;7.878;2023-09-30T19:23:55;99953.00;;;18.30
68012;BMP180;54794;48.348;7.878;2023-09-30T19:27:05;99974.00;;;17.70
68012;BMP180;54794;48.348;7.878;2023-09-30T19:34:32;99983.00;;;17.80
68012;BMP180;54794;48.348;7.878;2023-09-30T19:37:37;99977.00;;;17.60
68012;BMP180;54794;48.348;7.878;2023-09-30T19:41:20;99981.00;;;17.50
68012;BMP180;54794;48.348;7.878;2023-09-30T19:44:13;99979.00;;;17.60
68012;BMP180;54794;48.348;7.878;2023-09-30T19:51:35;99999.00;;;17.10
68012;BMP180;54794;48.348;7.878;2023-09-30T19:54:46;99994.00;;;17.00
68012;BMP180;54794;48.348;7.878;2023-09-30T19:57:46;99993.00;;;17.10